Wetterdaten: Woche 06.11.06 - 12.11.06 (KW45)
Datum Zeit Temperatur Luftfeuchte Luftdruck Niederschlag Windrichtung Wind
06.11.2006 00:00 1,3 C 88 % 1030 hPa 0,0 l/m S-SW 2,1 km/h (1 Bft)
06.11.2006 01:00 0,4 C 93 % 1030 hPa 0,0 l/m O 0,8 km/h (0 Bft)
06.11.2006 02:00 -0,4 C 94 % 1030 hPa 0,0 l/m N 0,0 km/h (0 Bft)
06.11.2006 03:00 -1,0 C 97 % 1030 hPa 0,0 l/m S 0,1 km/h (0 Bft)
06.11.2006 04:00 -1,1 C 99 % 1030 hPa 0,0 l/m N 0,0 km/h (0 Bft)
06.11.2006 05:00 -1,0 C 100 % 1030 hPa 0,0 l/m N 0,2 km/h (0 Bft)
06.11.2006 06:00 -0,4 C 100 % 1030 hPa 0,0 l/m S 2,8 km/h (1 Bft)
06.11.2006 07:00 -0,1 C 100 % 1030 hPa 0,0 l/m S 1,0 km/h (0 Bft)
06.11.2006 08:00 0,3 C 100 % 1030 hPa 0,0 l/m N 0,0 km/h (0 Bft)
06.11.2006 09:00 1,9 C 100 % 1030 hPa 0,0 l/m S 5,5 km/h (1 Bft)
06.11.2006 10:00 4,3 C 96 % 1030 hPa 0,0 l/m S-SW 6,9 km/h (2 Bft)
06.11.2006 11:00 6,8 C 77 % 1030 hPa 0,0 l/m S-SW 7,8 km/h (2 Bft)
06.11.2006 12:00 8,7 C 67 % 1030 hPa 0,0 l/m S-SW 8,1 km/h (2 Bft)
06.11.2006 13:00 10,7 C 58 % 1029 hPa 0,0 l/m S 7,7 km/h (2 Bft)
06.11.2006 14:00 11,2 C 56 % 1029 hPa 0,0 l/m S 8,9 km/h (2 Bft)
06.11.2006 15:00 10,2 C 59 % 1028 hPa 0,0 l/m S-SW 8,3 km/h (2 Bft)
06.11.2006 16:00 8,8 C 61 % 1028 hPa 0,0 l/m S-SW 7,0 km/h (2 Bft)
06.11.2006 17:00 6,8 C 69 % 1028 hPa 0,0 l/m S-SW 1,1 km/h (0 Bft)
06.11.2006 18:00 4,9 C 75 % 1029 hPa 0,0 l/m N 0,0 km/h (0 Bft)
06.11.2006 19:00 3,0 C 82 % 1028 hPa 0,0 l/m N 0,0 km/h (0 Bft)
06.11.2006 20:00 1,8 C 88 % 1028 hPa 0,0 l/m N 0,0 km/h (0 Bft)
06.11.2006 21:00 1,3 C 93 % 1028 hPa 0,0 l/m N 0,0 km/h (0 Bft)
06.11.2006 22:00 0,6 C 95 % 1028 hPa 0,0 l/m N 0,0 km/h (0 Bft)
06.11.2006 23:00 -0,2 C 96 % 1028 hPa 0,0 l/m N 0,0 km/h (0 Bft)
07.11.2006 00:00 -0,8 C 97 % 1028 hPa 0,0 l/m N 0,0 km/h (0 Bft)
07.11.2006 01:00 -1,0 C 99 % 1027 hPa 0,0 l/m N 0,0 km/h (0 Bft)
07.11.2006 02:00 -1,4 C 99 % 1027 hPa 0,0 l/m N 0,0 km/h (0 Bft)
07.11.2006 03:00 -1,9 C 99 % 1027 hPa 0,0 l/m N 0,0 km/h (0 Bft)
07.11.2006 04:00 -2,3 C 99 % 1026 hPa 0,0 l/m N 0,0 km/h (0 Bft)
07.11.2006 05:00 -2,8 C 99 % 1026 hPa 0,0 l/m N 0,0 km/h (0 Bft)
07.11.2006 06:00 -3,1 C 99 % 1026 hPa 0,0 l/m N 0,0 km/h (0 Bft)
07.11.2006 07:00 -3,0 C 100 % 1026 hPa 0,0 l/m N 0,0 km/h (0 Bft)
07.11.2006 08:00 -2,7 C 100 % 1026 hPa 0,0 l/m N 0,0 km/h (0 Bft)
07.11.2006 09:00 -0,4 C 100 % 1026 hPa 0,0 l/m S-SW 0,9 km/h (0 Bft)
07.11.2006 10:00 2,6 C 99 % 1026 hPa 0,0 l/m S 3,0 km/h (1 Bft)
07.11.2006 11:00 6,9 C 79 % 1026 hPa 0,0 l/m S 8,9 km/h (2 Bft)
07.11.2006 12:00 10,1 C 60 % 1026 hPa 0,0 l/m S 8,1 km/h (2 Bft)
07.11.2006 13:00 11,7 C 54 % 1025 hPa 0,0 l/m S 7,3 km/h (2 Bft)
07.11.2006 14:00 12,2 C 55 % 1025 hPa 0,0 l/m S 8,4 km/h (2 Bft)
07.11.2006 15:00 10,9 C 58 % 1024 hPa 0,0 l/m S-SW 7,2 km/h (2 Bft)
07.11.2006 16:00 9,1 C 65 % 1024 hPa 0,0 l/m S-SO 0,6 km/h (0 Bft)
07.11.2006 17:00 6,5 C 73 % 1024 hPa 0,0 l/m N 0,0 km/h (0 Bft)
07.11.2006 18:00 4,2 C 81 % 1024 hPa 0,0 l/m N 0,0 km/h (0 Bft)
07.11.2006 19:00 3,1 C 89 % 1024 hPa 0,0 l/m N 0,0 km/h (0 Bft)
07.11.2006 20:00 2,4 C 92 % 1024 hPa 0,0 l/m N 0,0 km/h (0 Bft)
07.11.2006 21:00 1,7 C 94 % 1024 hPa 0,0 l/m N 0,0 km/h (0 Bft)
07.11.2006 22:00 1,0 C 96 % 1024 hPa 0,0 l/m N 0,0 km/h (0 Bft)
07.11.2006 23:00 0,5 C 98 % 1025 hPa 0,0 l/m N 0,0 km/h (0 Bft)
08.11.2006 00:00 -0,0 C 99 % 1025 hPa 0,0 l/m N 0,1 km/h (0 Bft)
08.11.2006 01:00 -0,3 C 100 % 1025 hPa 0,0 l/m S 0,3 km/h (0 Bft)
08.11.2006 02:00 -0,3 C 100 % 1025 hPa 0,0 l/m N 0,0 km/h (0 Bft)
08.11.2006 03:00 -0,4 C 100 % 1025 hPa 0,0 l/m S-SW 0,4 km/h (0 Bft)
08.11.2006 04:00 0,6 C 100 % 1025 hPa 0,0 l/m S-SW 3,9 km/h (1 Bft)
08.11.2006 05:00 1,3 C 100 % 1026 hPa 0,0 l/m S-SW 4,9 km/h (1 Bft)
08.11.2006 06:00 1,5 C 100 % 1026 hPa 0,0 l/m S 4,9 km/h (1 Bft)
08.11.2006 07:00 1,5 C 100 % 1026 hPa 0,0 l/m SO 1,2 km/h (1 Bft)
08.11.2006 08:00 2,3 C 100 % 1027 hPa 0,0 l/m N 0,0 km/h (0 Bft)
08.11.2006 09:00 5,1 C 100 % 1027 hPa 0,0 l/m S 4,8 km/h (1 Bft)
08.11.2006 10:00 7,0 C 94 % 1027 hPa 0,0 l/m S 10,4 km/h (2 Bft)
08.11.2006 11:00 10,8 C 72 % 1027 hPa 0,0 l/m S-SW 13,1 km/h (3 Bft)
08.11.2006 12:00 13,2 C 59 % 1027 hPa 0,0 l/m S-SW 14,7 km/h (3 Bft)
08.11.2006 13:00 12,8 C 62 % 1027 hPa 0,0 l/m S-SW 11,9 km/h (2 Bft)
08.11.2006 14:00 12,4 C 64 % 1027 hPa 0,0 l/m SW 10,0 km/h (2 Bft)
08.11.2006 15:00 12,4 C 65 % 1027 hPa 0,0 l/m S-SW 10,2 km/h (2 Bft)
08.11.2006 16:00 12,1 C 65 % 1026 hPa 0,0 l/m S-SW 10,0 km/h (2 Bft)
08.11.2006 17:00 11,3 C 67 % 1026 hPa 0,0 l/m SW 9,2 km/h (2 Bft)
08.11.2006 18:00 10,3 C 71 % 1027 hPa 0,0 l/m W-SW 7,5 km/h (2 Bft)
08.11.2006 19:00 9,8 C 74 % 1027 hPa 0,0 l/m S-SW 8,3 km/h (2 Bft)
08.11.2006 20:00 9,1 C 77 % 1027 hPa 0,0 l/m S-SW 7,7 km/h (2 Bft)
08.11.2006 21:00 8,3 C 80 % 1027 hPa 0,0 l/m S-SW 8,5 km/h (2 Bft)
08.11.2006 22:00 8,6 C 78 % 1027 hPa 0,0 l/m S-SW 11,5 km/h (2 Bft)
08.11.2006 23:00 8,9 C 77 % 1027 hPa 0,0 l/m SW 8,5 km/h (2 Bft)
09.11.2006 00:00 9,2 C 75 % 1027 hPa 0,0 l/m S-SW 12,7 km/h (3 Bft)
09.11.2006 01:00 8,4 C 80 % 1026 hPa 0,0 l/m S-SW 12,0 km/h (2 Bft)
09.11.2006 02:00 8,3 C 82 % 1026 hPa 0,0 l/m S-SW 12,0 km/h (2 Bft)
09.11.2006 03:00 8,3 C 83 % 1026 hPa 0,0 l/m S-SW 12,0 km/h (2 Bft)
09.11.2006 04:00 10,8 C 69 % 1026 hPa 0,0 l/m W-SW 15,3 km/h (3 Bft)
09.11.2006 05:00 10,9 C 72 % 1026 hPa 0,0 l/m W-SW 13,4 km/h (3 Bft)
09.11.2006 06:00 11,2 C 75 % 1026 hPa 0,0 l/m SW 13,9 km/h (3 Bft)
09.11.2006 07:00 10,8 C 80 % 1026 hPa 0,0 l/m SW 13,2 km/h (3 Bft)
09.11.2006 08:00 10,6 C 85 % 1027 hPa 0,0 l/m W-SW 12,7 km/h (3 Bft)
09.11.2006 09:00 10,5 C 86 % 1027 hPa 0,0 l/m SW 12,5 km/h (3 Bft)
09.11.2006 10:00 11,0 C 86 % 1027 hPa 0,0 l/m SW 11,7 km/h (2 Bft)
09.11.2006 11:00 11,2 C 87 % 1028 hPa 0,0 l/m W-SW 9,8 km/h (2 Bft)
09.11.2006 12:00 11,1 C 88 % 1028 hPa 0,0 l/m W-SW 8,5 km/h (2 Bft)
09.11.2006 13:00 11,9 C 79 % 1028 hPa 0,0 l/m W-SW 9,5 km/h (2 Bft)
09.11.2006 14:00 12,6 C 72 % 1028 hPa 0,0 l/m W-SW 11,8 km/h (2 Bft)
09.11.2006 15:00 12,1 C 75 % 1028 hPa 0,0 l/m W-SW 8,3 km/h (2 Bft)
09.11.2006 16:00 11,6 C 77 % 1029 hPa 0,0 l/m W 8,7 km/h (2 Bft)
09.11.2006 17:00 10,6 C 78 % 1029 hPa 0,0 l/m W 8,8 km/h (2 Bft)
09.11.2006 18:00 9,2 C 83 % 1030 hPa 0,0 l/m W 5,8 km/h (2 Bft)
09.11.2006 19:00 8,8 C 79 % 1031 hPa 0,0 l/m W 7,2 km/h (2 Bft)
09.11.2006 20:00 8,3 C 74 % 1031 hPa 0,0 l/m W 7,2 km/h (2 Bft)
09.11.2006 21:00 7,1 C 78 % 1031 hPa 0,0 l/m W-NW 2,0 km/h (1 Bft)
09.11.2006 22:00 5,5 C 86 % 1032 hPa 0,0 l/m W 1,1 km/h (1 Bft)
09.11.2006 23:00 4,6 C 91 % 1032 hPa 0,0 l/m W-NW 2,8 km/h (1 Bft)
10.11.2006 00:00 4,1 C 92 % 1033 hPa 0,0 l/m NW 2,5 km/h (1 Bft)
10.11.2006 01:00 3,2 C 91 % 1033 hPa 0,0 l/m NW 0,6 km/h (0 Bft)
10.11.2006 02:00 2,0 C 94 % 1033 hPa 0,0 l/m N 0,0 km/h (0 Bft)
10.11.2006 03:00 1,5 C 97 % 1034 hPa 0,0 l/m N 0,0 km/h (0 Bft)
10.11.2006 04:00 0,9 C 98 % 1034 hPa 0,0 l/m N 0,0 km/h (0 Bft)
10.11.2006 05:00 -0,0 C 98 % 1035 hPa 0,0 l/m N 0,0 km/h (0 Bft)
10.11.2006 06:00 -0,5 C 99 % 1035 hPa 0,0 l/m N 0,0 km/h (0 Bft)
10.11.2006 07:00 -0,5 C 100 % 1035 hPa 0,0 l/m N-NW 4,2 km/h (1 Bft)
10.11.2006 08:00 -0,5 C 100 % 1035 hPa 0,0 l/m N 0,0 km/h (0 Bft)
10.11.2006 09:00 1,3 C 100 % 1035 hPa 0,0 l/m N 0,0 km/h (0 Bft)
10.11.2006 10:00 4,0 C 83 % 1035 hPa 0,0 l/m NO 5,4 km/h (1 Bft)
10.11.2006 11:00 6,0 C 66 % 1035 hPa 0,0 l/m NO 8,5 km/h (2 Bft)
10.11.2006 12:00 7,5 C 54 % 1035 hPa 0,0 l/m NO 9,8 km/h (2 Bft)
10.11.2006 13:00 8,4 C 51 % 1035 hPa 0,0 l/m O-NO 10,8 km/h (2 Bft)
10.11.2006 14:00 8,1 C 52 % 1034 hPa 0,0 l/m O-NO 9,0 km/h (2 Bft)
10.11.2006 15:00 7,3 C 54 % 1033 hPa 0,0 l/m N-NO 8,4 km/h (2 Bft)
10.11.2006 16:00 6,3 C 60 % 1033 hPa 0,0 l/m N-NO 5,1 km/h (1 Bft)
10.11.2006 17:00 4,0 C 69 % 1032 hPa 0,0 l/m N 0,0 km/h (0 Bft)
10.11.2006 18:00 2,0 C 79 % 1032 hPa 0,0 l/m W-NW 1,3 km/h (1 Bft)
10.11.2006 19:00 1,2 C 85 % 1031 hPa 0,0 l/m W-NW 0,9 km/h (0 Bft)
10.11.2006 20:00 1,1 C 89 % 1031 hPa 0,0 l/m NW 3,9 km/h (1 Bft)
10.11.2006 21:00 0,7 C 90 % 1031 hPa 0,0 l/m W-NW 1,3 km/h (1 Bft)
10.11.2006 22:00 -0,1 C 92 % 1030 hPa 0,0 l/m W-NW 1,2 km/h (1 Bft)
10.11.2006 23:00 -0,5 C 95 % 1029 hPa 0,0 l/m N 0,0 km/h (0 Bft)
11.11.2006 00:00 -1,0 C 97 % 1029 hPa 0,0 l/m N 0,0 km/h (0 Bft)
11.11.2006 01:00 -1,5 C 97 % 1028 hPa 0,0 l/m N 0,0 km/h (0 Bft)
11.11.2006 02:00 -1,9 C 98 % 1027 hPa 0,0 l/m S-SW 0,4 km/h (0 Bft)
11.11.2006 03:00 -1,5 C 100 % 1027 hPa 0,0 l/m S 1,4 km/h (1 Bft)
11.11.2006 04:00 -0,0 C 100 % 1026 hPa 0,0 l/m O 5,4 km/h (1 Bft)
11.11.2006 05:00 0,4 C 100 % 1025 hPa 0,0 l/m O 7,5 km/h (2 Bft)
11.11.2006 06:00 0,9 C 100 % 1025 hPa 0,0 l/m SO 7,2 km/h (2 Bft)
11.11.2006 07:00 1,3 C 100 % 1024 hPa 0,0 l/m S-SW 7,0 km/h (2 Bft)
11.11.2006 08:00 2,1 C 100 % 1024 hPa 0,0 l/m S-SW 10,5 km/h (2 Bft)
11.11.2006 09:00 3,3 C 100 % 1023 hPa 0,0 l/m S-SW 12,6 km/h (3 Bft)
11.11.2006 10:00 4,5 C 99 % 1024 hPa 0,0 l/m S-SW 12,8 km/h (3 Bft)
11.11.2006 11:00 5,1 C 90 % 1023 hPa 0,0 l/m S-SW 14,5 km/h (3 Bft)
11.11.2006 12:00 7,2 C 72 % 1023 hPa 0,0 l/m S-SW 16,0 km/h (3 Bft)
11.11.2006 13:00 8,2 C 68 % 1022 hPa 0,0 l/m SW 15,3 km/h (3 Bft)
11.11.2006 14:00 7,0 C 86 % 1022 hPa 2,0 l/m SW 13,7 km/h (3 Bft)
11.11.2006 15:00 6,4 C 97 % 1022 hPa 0,0 l/m SW 13,6 km/h (3 Bft)
11.11.2006 16:00 6,8 C 98 % 1022 hPa 0,0 l/m SW 16,6 km/h (3 Bft)
11.11.2006 17:00 7,5 C 96 % 1021 hPa 0,0 l/m SW 18,2 km/h (3 Bft)
11.11.2006 18:00 8,1 C 94 % 1021 hPa 0,0 l/m SW 14,6 km/h (3 Bft)
11.11.2006 19:00 8,4 C 93 % 1021 hPa 0,0 l/m SW 16,2 km/h (3 Bft)
11.11.2006 20:00 8,7 C 90 % 1020 hPa 0,0 l/m SW 15,8 km/h (3 Bft)
11.11.2006 21:00 8,8 C 91 % 1020 hPa 0,0 l/m SW 15,0 km/h (3 Bft)
11.11.2006 22:00 8,8 C 93 % 1020 hPa 0,0 l/m W-SW 15,1 km/h (3 Bft)
11.11.2006 23:00 8,9 C 92 % 1019 hPa 0,0 l/m SW 14,6 km/h (3 Bft)
12.11.2006 00:00 8,9 C 91 % 1018 hPa 0,0 l/m SW 14,1 km/h (3 Bft)
12.11.2006 01:00 9,0 C 89 % 1017 hPa 0,0 l/m W-SW 14,3 km/h (3 Bft)
12.11.2006 02:00 8,7 C 96 % 1017 hPa 2,0 l/m W 14,7 km/h (3 Bft)
12.11.2006 03:00 8,2 C 95 % 1017 hPa 0,0 l/m W 10,9 km/h (2 Bft)
12.11.2006 04:00 7,8 C 94 % 1017 hPa 0,0 l/m W 13,7 km/h (3 Bft)
12.11.2006 05:00 7,2 C 92 % 1017 hPa 1,0 l/m W-NW 15,1 km/h (3 Bft)
12.11.2006 06:00 6,3 C 87 % 1017 hPa 0,0 l/m W 17,5 km/h (3 Bft)
12.11.2006 07:00 6,2 C 84 % 1018 hPa 0,0 l/m W-SW 17,1 km/h (3 Bft)
12.11.2006 08:00 6,3 C 86 % 1018 hPa 0,0 l/m W-SW 12,1 km/h (2 Bft)
12.11.2006 09:00 7,3 C 78 % 1018 hPa 0,0 l/m SW 14,7 km/h (3 Bft)
12.11.2006 10:00 8,0 C 77 % 1017 hPa 0,0 l/m W-SW 17,6 km/h (3 Bft)
12.11.2006 11:00 6,9 C 81 % 1018 hPa 7,0 l/m W-SW 16,7 km/h (3 Bft)
12.11.2006 12:00 5,5 C 90 % 1018 hPa 0,0 l/m W 16,8 km/h (3 Bft)
12.11.2006 13:00 6,3 C 79 % 1018 hPa 0,0 l/m W 15,0 km/h (3 Bft)
12.11.2006 14:00 6,7 C 67 % 1018 hPa 0,0 l/m W 17,0 km/h (3 Bft)
12.11.2006 15:00 6,3 C 64 % 1018 hPa 0,0 l/m W 12,9 km/h (3 Bft)
12.11.2006 16:00 5,5 C 66 % 1019 hPa 1,0 l/m W 16,0 km/h (3 Bft)
12.11.2006 17:00 5,0 C 73 % 1020 hPa 0,0 l/m W-SW 10,9 km/h (2 Bft)
12.11.2006 18:00 4,9 C 72 % 1020 hPa 0,0 l/m SW 10,8 km/h (2 Bft)
12.11.2006 19:00 4,5 C 74 % 1020 hPa 0,0 l/m W-SW 10,2 km/h (2 Bft)
12.11.2006 20:00 5,0 C 77 % 1020 hPa 0,0 l/m W-SW 11,1 km/h (2 Bft)
12.11.2006 21:00 5,2 C 71 % 1021 hPa 0,0 l/m W-SW 13,0 km/h (3 Bft)
12.11.2006 22:00 4,8 C 68 % 1021 hPa 0,0 l/m W 11,0 km/h (2 Bft)
12.11.2006 23:00 4,3 C 71 % 1020 hPa 0,0 l/m W-SW 9,3 km/h (2 Bft)
Min-Datum _ 07.11.06 10.11.06 12.11.06 - - 06.11.06
_ Min-Zeit 06:04 13:33 00:50 - - 00:00
Minimum _ -3,1 C 50 % 1017 hPa - - 0,0 km/h (0 Bft)
Max-Datum _ 08.11.06 06.11.06 10.11.06 12.11.06 - 12.11.06
_ Max-Zeit 12:32 04:36 05:35 11:40 - 07:00
Maximum _ 13,6 C 100 % 1035 hPa 7,0 l/m - 35,3 km/h
W-SW (5 Bft)
Durchschnitt _ 5,1 C 85 % 1027 hPa #13,0 l/m S-SW 7,0 km/h (2 Bft)

Durchschnitt Minimum Temp.4,7 C
Durchschnitt Maximum Temp.5,6 C